Time;durP1;ratioP1;P1;durP2;ratioP2;P2;SDS_P1;SDS_P2;PMS_P1;PMS_P2;Temp;Humidity;BMP_temperature;BMP_pressure;BME280_temperature;BME280_humidity;BME280_pressure;Samples;Min_cycle;Max_cycle;Signal;HPM_P1;HPM_P2
2022/05/19 00:01:56;;;;;;;9.47;2.20;;;14.50;99.90;;;;;;5024354;28;20441;-69
2022/05/19 00:04:22;;;;;;;6.20;2.77;;;14.50;99.90;;;;;;5024882;28;20427;-68
2022/05/19 00:06:48;;;;;;;2.40;1.60;;;14.50;99.90;;;;;;5011531;28;20476;-69
2022/05/19 00:09:14;;;;;;;3.93;1.90;;;14.60;99.90;;;;;;5025140;28;20432;-66
2022/05/19 00:11:42;;;;;;;3.50;1.70;;;14.60;99.90;;;;;;5023469;28;20655;-66
2022/05/19 00:14:08;;;;;;;2.40;1.70;;;14.60;99.90;;;;;;5025394;28;20453;-67
2022/05/19 00:16:34;;;;;;;2.97;1.67;;;14.50;99.90;;;;;;5025288;28;20594;-67
2022/05/19 00:19:00;;;;;;;4.73;1.87;;;14.40;99.90;;;;;;5025310;28;20581;-67
2022/05/19 00:21:26;;;;;;;5.23;2.17;;;14.40;99.90;;;;;;5030085;28;20661;-68
2022/05/19 00:23:52;;;;;;;3.93;1.97;;;14.30;99.90;;;;;;5024680;28;20195;-69
2022/05/19 00:26:17;;;;;;;5.23;2.00;;;14.30;99.90;;;;;;5028586;28;20198;-68
2022/05/19 00:28:43;;;;;;;4.33;2.17;;;14.30;99.90;;;;;;5029109;28;20708;-68
2022/05/19 00:31:10;;;;;;;3.47;2.00;;;14.30;99.90;;;;;;5026247;28;20205;-68
2022/05/19 00:33:35;;;;;;;7.83;2.70;;;14.20;99.90;;;;;;5024976;28;20199;-68
2022/05/19 00:36:12;;;;;;;3.70;2.10;;;14.20;99.90;;;;;;5026094;28;20812;-68
2022/05/19 00:38:38;;;;;;;4.00;2.10;;;14.10;99.90;;;;;;5020354;28;20190;-69
2022/05/19 00:41:05;;;;;;;3.20;1.73;;;14.10;99.90;;;;;;5025423;28;20440;-69
2022/05/19 00:43:37;;;;;;;4.23;2.20;;;14.10;99.90;;;;;;5022395;28;20534;-68
2022/05/19 00:46:08;;;;;;;4.80;2.60;;;14.10;99.90;;;;;;5029183;28;20451;-68
2022/05/19 00:49:01;;;;;;;4.87;2.90;;;14.00;99.90;;;;;;5026970;28;20940;-68
2022/05/19 00:51:42;;;;;;;3.60;1.77;;;13.90;99.90;;;;;;5025902;28;20860;-68
2022/05/19 00:54:12;;;;;;;5.03;2.57;;;13.90;99.90;;;;;;5029297;28;20477;-68
2022/05/19 00:57:17;;;;;;;7.97;2.13;;;13.80;99.90;;;;;;5028567;28;20471;-68
2022/05/19 00:59:57;;;;;;;3.93;2.17;;;13.80;99.90;;;;;;5026622;28;20620;-69
2022/05/19 01:02:30;;;;;;;4.20;2.30;;;13.80;99.90;;;;;;5027280;28;20451;-68
2022/05/19 01:05:07;;;;;;;3.37;1.80;;;13.70;99.90;;;;;;5024598;28;20460;-68
2022/05/19 01:07:57;;;;;;;3.63;1.60;;;13.70;99.90;;;;;;5021205;28;20654;-68
2022/05/19 01:10:23;;;;;;;7.03;2.70;;;13.60;99.90;;;;;;5025963;28;20472;-68
2022/05/19 01:12:50;;;;;;;5.00;2.67;;;13.50;99.90;;;;;;5024687;28;20908;-68
2022/05/19 01:15:17;;;;;;;4.93;2.30;;;13.50;99.90;;;;;;5027925;28;20187;-68
2022/05/19 01:17:42;;;;;;;3.70;2.30;;;13.50;99.90;;;;;;5027177;28;20476;-68
2022/05/19 01:20:23;;;;;;;4.63;2.63;;;13.50;99.90;;;;;;5023339;28;20447;-68
2022/05/19 01:22:55;;;;;;;6.67;2.73;;;13.50;99.90;;;;;;5027882;28;20432;-68
2022/05/19 01:25:39;;;;;;;5.77;2.60;;;13.40;99.90;;;;;;5026775;28;20798;-68
2022/05/19 01:28:06;;;;;;;5.10;2.30;;;13.40;99.90;;;;;;5024791;28;20527;-68
2022/05/19 01:30:32;;;;;;;8.00;3.47;;;13.40;99.90;;;;;;5026174;28;21234;-68
2022/05/19 01:32:58;;;;;;;5.87;2.50;;;13.40;99.90;;;;;;5026175;28;20439;-68
2022/05/19 01:35:24;;;;;;;9.90;3.20;;;13.30;99.90;;;;;;5026936;28;21255;-68
2022/05/19 01:37:50;;;;;;;5.70;2.90;;;13.20;99.90;;;;;;5026332;28;20319;-68
2022/05/19 01:40:39;;;;;;;7.53;3.17;;;13.20;99.90;;;;;;5025946;28;20902;-68
2022/05/19 01:43:23;;;;;;;7.63;4.30;;;13.20;99.90;;;;;;5026467;28;20429;-68
2022/05/19 01:46:06;;;;;;;8.80;4.10;;;13.20;99.90;;;;;;5027628;28;20483;-68
2022/05/19 01:48:50;;;;;;;9.40;3.63;;;13.20;99.90;;;;;;5020177;28;20421;-68
2022/05/19 01:51:37;;;;;;;9.83;2.80;;;13.10;99.90;;;;;;5027747;28;20524;-68
2022/05/19 01:54:36;;;;;;;5.03;2.30;;;13.10;99.90;;;;;;5027574;28;20607;-68
2022/05/19 01:57:15;;;;;;;9.03;2.30;;;13.10;99.90;;;;;;5026776;28;20558;-68
2022/05/19 01:59:52;;;;;;;8.63;3.10;;;13.00;99.90;;;;;;5028588;28;20429;-68
2022/05/19 02:02:38;;;;;;;6.13;2.80;;;13.00;99.90;;;;;;5026877;28;20803;-68
2022/05/19 02:05:10;;;;;;;4.37;2.57;;;13.00;99.90;;;;;;5026385;28;20964;-68
2022/05/19 02:07:39;;;;;;;4.30;2.03;;;13.00;99.90;;;;;;5027614;28;20953;-68
2022/05/19 02:10:14;;;;;;;5.07;2.00;;;12.90;99.90;;;;;;5025773;28;20436;-68
2022/05/19 02:12:40;;;;;;;3.50;2.20;;;12.90;99.90;;;;;;5021312;28;20429;-68
2022/05/19 02:15:11;;;;;;;3.80;1.77;;;12.90;99.90;;;;;;5025057;28;20627;-69
2022/05/19 02:17:37;;;;;;;5.73;2.13;;;12.80;99.90;;;;;;5024205;28;20904;-68
2022/05/19 02:20:09;;;;;;;4.77;1.93;;;12.80;99.90;;;;;;5023710;28;20523;-68
2022/05/19 02:22:42;;;;;;;4.20;2.00;;;12.80;99.90;;;;;;5020023;28;20182;-68
2022/05/19 02:25:13;;;;;;;3.57;1.93;;;12.80;99.90;;;;;;5026592;28;20465;-68
2022/05/19 02:28:02;;;;;;;4.37;2.27;;;12.70;99.90;;;;;;5027836;28;20425;-68
2022/05/19 02:30:32;;;;;;;3.17;1.77;;;12.70;99.90;;;;;;5024377;28;21011;-69
2022/05/19 02:32:58;;;;;;;4.63;1.93;;;12.70;99.90;;;;;;5023152;28;20436;-68
2022/05/19 02:35:24;;;;;;;3.53;1.53;;;12.70;99.90;;;;;;5026761;28;20911;-68
2022/05/19 02:37:51;;;;;;;4.40;2.17;;;12.60;99.90;;;;;;5026217;28;20503;-68
2022/05/19 02:40:20;;;;;;;2.53;1.63;;;12.60;99.90;;;;;;5025558;28;20432;-68
2022/05/19 02:42:46;;;;;;;3.30;1.87;;;12.50;99.90;;;;;;5026305;28;21003;-68
2022/05/19 02:45:13;;;;;;;5.33;1.70;;;12.50;99.90;;;;;;5025761;28;20456;-68
2022/05/19 02:47:39;;;;;;;3.80;2.10;;;12.40;99.90;;;;;;5024547;28;20233;-68
2022/05/19 02:50:06;;;;;;;5.40;2.60;;;12.40;99.90;;;;;;5024896;28;21011;-68
2022/05/19 02:52:32;;;;;;;7.83;2.40;;;12.40;99.90;;;;;;5024758;28;20214;-68
2022/05/19 02:54:58;;;;;;;4.37;2.00;;;12.40;99.90;;;;;;5025297;28;20472;-68
2022/05/19 02:57:23;;;;;;;8.30;2.37;;;12.30;99.90;;;;;;5025692;28;20656;-68
2022/05/19 02:59:49;;;;;;;3.53;2.10;;;12.40;99.90;;;;;;5026619;28;20191;-68
2022/05/19 03:02:14;;;;;;;2.93;1.60;;;12.50;99.90;;;;;;5022645;28;20213;-68
2022/05/19 03:04:40;;;;;;;4.10;2.50;;;12.40;99.90;;;;;;5027249;28;20546;-68
2022/05/19 03:07:06;;;;;;;3.60;1.70;;;12.40;99.90;;;;;;5024215;28;20204;-68
2022/05/19 03:09:32;;;;;;;2.50;1.40;;;12.40;99.90;;;;;;5024408;28;20201;-69
2022/05/19 03:11:58;;;;;;;2.93;1.87;;;12.40;99.90;;;;;;5021774;28;20201;-69
2022/05/19 03:14:24;;;;;;;5.33;1.80;;;12.30;99.90;;;;;;5025040;28;20445;-68
2022/05/19 03:16:49;;;;;;;2.93;1.80;;;12.30;99.90;;;;;;5021616;28;20742;-68
2022/05/19 03:19:16;;;;;;;3.30;2.07;;;12.20;99.90;;;;;;5024380;28;20681;-68
2022/05/19 03:21:42;;;;;;;3.20;1.90;;;12.20;99.90;;;;;;5023059;28;20228;-68
2022/05/19 03:24:08;;;;;;;4.70;1.70;;;12.20;99.90;;;;;;5024317;28;20436;-69
2022/05/19 03:26:34;;;;;;;6.63;1.70;;;12.20;99.90;;;;;;5024115;28;20240;-68
2022/05/19 03:29:00;;;;;;;6.63;1.83;;;12.20;99.90;;;;;;5024738;28;20440;-68
2022/05/19 03:31:26;;;;;;;3.03;1.93;;;12.20;99.90;;;;;;5024468;28;20209;-68
2022/05/19 03:33:52;;;;;;;4.17;1.90;;;12.10;99.90;;;;;;5024825;28;20433;-68
2022/05/19 03:36:18;;;;;;;8.33;2.37;;;12.00;99.90;;;;;;5024383;28;20479;-68
2022/05/19 03:38:44;;;;;;;3.50;2.13;;;12.00;99.90;;;;;;5023191;28;20437;-68
2022/05/19 03:41:10;;;;;;;3.20;1.80;;;12.00;99.90;;;;;;5025992;28;20477;-67
2022/05/19 03:43:36;;;;;;;2.77;1.97;;;12.00;99.90;;;;;;5026615;28;20433;-68
2022/05/19 03:46:03;;;;;;;2.20;1.33;;;12.00;99.90;;;;;;5022926;28;20201;-68
2022/05/19 03:48:36;;;;;;;3.10;1.70;;;12.00;99.90;;;;;;5024664;28;20221;-68
2022/05/19 03:51:04;;;;;;;4.30;2.43;;;12.00;99.90;;;;;;5023250;28;20544;-69
2022/05/19 03:53:31;;;;;;;3.87;2.00;;;12.10;99.90;;;;;;5024151;28;20447;-68
2022/05/19 03:55:56;;;;;;;5.73;2.33;;;12.10;99.90;;;;;;5024084;28;20927;-68
2022/05/19 03:58:22;;;;;;;3.93;2.00;;;12.10;99.90;;;;;;5021454;28;20438;-67
2022/05/19 04:00:48;;;;;;;4.30;2.33;;;12.00;99.90;;;;;;5022269;28;20178;-68
2022/05/19 04:03:14;;;;;;;3.80;2.23;;;12.00;99.90;;;;;;5024893;28;20674;-68
2022/05/19 04:05:39;;;;;;;6.57;2.00;;;12.10;99.90;;;;;;5024353;28;20197;-67
2022/05/19 04:08:05;;;;;;;3.47;2.03;;;12.10;99.90;;;;;;5024224;28;20201;-68
2022/05/19 04:10:32;;;;;;;4.87;2.33;;;12.20;99.90;;;;;;5023545;28;20194;-68
2022/05/19 04:12:58;;;;;;;4.00;1.90;;;12.20;99.90;;;;;;5024603;28;20436;-68
2022/05/19 04:15:24;;;;;;;3.70;1.90;;;12.20;99.90;;;;;;5023660;28;20486;-68
2022/05/19 04:17:50;;;;;;;2.90;1.80;;;12.10;99.90;;;;;;5025436;28;20985;-68
2022/05/19 04:20:16;;;;;;;2.40;1.40;;;12.10;99.90;;;;;;5026158;28;20424;-68
2022/05/19 04:22:42;;;;;;;4.13;2.10;;;12.10;99.90;;;;;;5018712;28;20547;-68
2022/05/19 04:25:10;;;;;;;5.77;1.43;;;12.20;99.90;;;;;;5024003;28;20426;-68
2022/05/19 04:27:36;;;;;;;3.50;2.00;;;12.30;99.90;;;;;;5021307;28;20194;-68
2022/05/19 04:30:04;;;;;;;3.50;1.67;;;12.30;99.90;;;;;;5017340;28;20532;-68
2022/05/19 04:32:29;;;;;;;3.00;1.93;;;12.40;99.90;;;;;;5017064;28;20425;-68
2022/05/19 04:34:55;;;;;;;3.67;1.93;;;12.40;99.90;;;;;;5022123;28;20433;-68
2022/05/19 04:37:20;;;;;;;4.83;2.43;;;12.50;99.90;;;;;;5023579;28;20222;-68
2022/05/19 04:39:46;;;;;;;5.13;2.07;;;12.50;99.90;;;;;;5024240;28;20535;-68
2022/05/19 04:42:13;;;;;;;4.97;2.10;;;12.60;99.90;;;;;;5023630;28;20224;-68
2022/05/19 04:44:39;;;;;;;7.07;2.20;;;12.60;99.90;;;;;;5021330;28;20240;-68
2022/05/19 04:47:06;;;;;;;3.03;1.90;;;12.70;99.90;;;;;;5020067;28;20452;-68
2022/05/19 04:49:32;;;;;;;6.60;1.63;;;12.70;99.90;;;;;;5023369;28;20451;-68
2022/05/19 04:51:58;;;;;;;3.13;2.00;;;12.80;99.90;;;;;;5021677;28;20984;-68
2022/05/19 04:54:24;;;;;;;4.00;1.83;;;12.90;99.90;;;;;;5022951;28;20479;-69
2022/05/19 04:56:50;;;;;;;3.80;1.37;;;13.00;99.90;;;;;;5025020;28;20211;-68
2022/05/19 04:59:17;;;;;;;3.27;1.87;;;13.10;99.90;;;;;;5025710;28;20239;-68
2022/05/19 05:01:44;;;;;;;4.70;2.23;;;13.20;99.90;;;;;;5022011;28;20447;-67
2022/05/19 05:04:10;;;;;;;4.50;2.23;;;13.30;99.90;;;;;;5023438;28;20511;-67
2022/05/19 05:06:36;;;;;;;4.90;2.00;;;13.40;99.90;;;;;;5025336;28;20547;-68
2022/05/19 05:09:03;;;;;;;4.90;2.10;;;13.50;99.90;;;;;;5028071;28;21017;-67
2022/05/19 05:11:28;;;;;;;5.97;2.50;;;13.60;99.90;;;;;;5027660;28;20197;-67
2022/05/19 05:13:54;;;;;;;4.60;1.90;;;13.70;99.90;;;;;;5028238;28;20925;-68
2022/05/19 05:16:20;;;;;;;6.53;2.20;;;13.90;99.90;;;;;;5027406;28;20210;-67
2022/05/19 05:18:45;;;;;;;4.07;2.23;;;14.00;99.90;;;;;;5025202;28;20592;-67
2022/05/19 05:21:13;;;;;;;5.40;2.33;;;14.10;99.90;;;;;;5025582;28;20218;-67
2022/05/19 05:23:42;;;;;;;3.30;1.93;;;14.30;99.90;;;;;;5028729;28;20183;-67
2022/05/19 05:26:08;;;;;;;3.37;2.00;;;14.50;99.90;;;;;;5026753;28;20432;-67
2022/05/19 05:28:36;;;;;;;5.43;1.80;;;14.70;99.90;;;;;;5024526;28;20513;-67
2022/05/19 05:31:03;;;;;;;4.60;2.57;;;14.80;99.90;;;;;;5018384;28;20448;-67
2022/05/19 05:33:29;;;;;;;3.07;2.10;;;14.90;99.90;;;;;;5025241;28;20542;-68
2022/05/19 05:35:54;;;;;;;9.30;2.20;;;15.00;99.90;;;;;;5027669;28;20457;-68
2022/05/19 05:38:20;;;;;;;4.33;2.17;;;15.10;99.90;;;;;;5027736;28;20206;-68
2022/05/19 05:40:49;;;;;;;6.33;2.50;;;15.20;99.90;;;;;;5027900;28;20214;-67
2022/05/19 05:43:19;;;;;;;3.80;2.20;;;15.30;99.90;;;;;;5028108;28;20245;-67
2022/05/19 05:45:45;;;;;;;8.00;3.03;;;15.40;99.90;;;;;;5024430;28;20452;-67
2022/05/19 05:48:12;;;;;;;2.57;1.47;;;15.40;99.90;;;;;;5026994;28;20433;-67
2022/05/19 05:50:38;;;;;;;2.53;1.57;;;15.50;99.90;;;;;;5023903;28;20433;-67
2022/05/19 05:53:06;;;;;;;5.67;2.80;;;15.60;99.90;;;;;;5027116;28;20745;-67
2022/05/19 05:55:32;;;;;;;3.30;2.00;;;15.70;99.90;;;;;;5026692;28;20441;-67
2022/05/19 05:57:57;;;;;;;5.93;2.30;;;15.80;99.90;;;;;;5026510;28;20507;-67
2022/05/19 06:00:23;;;;;;;3.80;2.03;;;15.90;99.90;;;;;;5025421;28;20191;-68
2022/05/19 06:02:49;;;;;;;5.83;2.50;;;16.00;99.90;;;;;;5026182;28;20190;-67
2022/05/19 06:05:16;;;;;;;3.97;2.37;;;16.10;99.90;;;;;;5024461;28;20256;-67
2022/05/19 06:07:42;;;;;;;3.83;1.87;;;16.30;99.90;;;;;;5023678;28;20191;-67
2022/05/19 06:10:10;;;;;;;3.20;1.83;;;16.50;99.90;;;;;;5024473;28;20464;-69
2022/05/19 06:12:36;;;;;;;4.30;2.00;;;16.60;99.90;;;;;;5027762;28;20285;-67
2022/05/19 06:15:01;;;;;;;4.03;2.20;;;16.70;99.90;;;;;;5032524;28;21478;-67
2022/05/19 06:17:27;;;;;;;5.13;1.73;;;16.70;99.90;;;;;;5027634;28;20218;-68
2022/05/19 06:19:53;;;;;;;5.10;2.23;;;16.70;99.90;;;;;;5030872;28;20201;-67
2022/05/19 06:22:22;;;;;;;3.50;2.00;;;16.80;99.90;;;;;;5026691;28;20202;-67
2022/05/19 06:24:49;;;;;;;4.60;1.37;;;16.80;99.90;;;;;;5027554;28;20585;-67
2022/05/19 06:27:14;;;;;;;3.40;1.80;;;16.90;99.90;;;;;;5027703;28;20492;-67
2022/05/19 06:29:40;;;;;;;3.17;1.87;;;17.00;99.90;;;;;;5030218;28;20541;-68
2022/05/19 06:32:06;;;;;;;6.13;2.30;;;17.00;99.40;;;;;;5026760;28;20228;-65
2022/05/19 06:34:32;;;;;;;4.40;2.00;;;17.10;99.20;;;;;;5025604;28;20232;-65
2022/05/19 06:36:58;;;;;;;4.30;2.30;;;17.10;99.40;;;;;;5023595;28;20814;-65
2022/05/19 06:39:23;;;;;;;7.03;2.13;;;17.20;99.10;;;;;;5026703;28;20714;-65
2022/05/19 06:42:01;;;;;;;6.67;1.77;;;17.30;99.10;;;;;;5023116;28;20186;-65
2022/05/19 06:44:38;;;;;;;4.67;2.13;;;17.40;99.40;;;;;;5024472;28;20202;-66
2022/05/19 06:47:13;;;;;;;4.90;2.10;;;17.50;98.60;;;;;;5025539;28;20648;-65
2022/05/19 06:49:59;;;;;;;3.20;2.20;;;17.70;98.30;;;;;;5024806;28;20806;-66
2022/05/19 06:52:29;;;;;;;8.83;1.83;;;17.90;97.80;;;;;;5021198;28;20920;-67
2022/05/19 06:54:57;;;;;;;2.97;1.50;;;18.00;97.90;;;;;;5027084;28;20854;-65
2022/05/19 06:57:25;;;;;;;4.77;1.93;;;18.30;97.20;;;;;;5025053;28;20504;-65
2022/05/19 06:59:51;;;;;;;3.10;1.40;;;18.60;96.40;;;;;;5031146;28;20784;-66
2022/05/19 07:02:19;;;;;;;3.67;1.87;;;18.90;95.50;;;;;;5026283;28;20429;-65
2022/05/19 07:04:45;;;;;;;4.43;1.50;;;19.10;95.60;;;;;;5026593;28;20968;-66
2022/05/19 07:07:12;;;;;;;4.40;1.83;;;19.40;94.40;;;;;;5025351;28;20520;-66
2022/05/19 07:09:39;;;;;;;3.80;1.90;;;19.70;94.40;;;;;;5023803;28;20630;-65
2022/05/19 07:12:06;;;;;;;5.10;1.33;;;19.80;94.70;;;;;;5025646;28;20429;-67
2022/05/19 07:14:33;;;;;;;7.63;2.00;;;20.00;93.70;;;;;;5025400;28;20479;-65
2022/05/19 07:16:58;;;;;;;3.47;1.40;;;20.30;93.80;;;;;;5025211;28;20465;-65
2022/05/19 07:22:15;;;;;;;4.83;2.00;;;21.10;93.20;;;;;;5022027;28;20692;-65
2022/05/19 07:24:40;;;;;;;3.90;1.50;;;21.60;90.70;;;;;;5021183;28;20443;-65
2022/05/19 07:27:06;;;;;;;2.70;1.40;;;22.00;90.20;;;;;;5024947;28;20425;-66
2022/05/19 07:29:32;;;;;;;3.70;1.23;;;22.40;88.10;;;;;;5024851;28;20264;-65
2022/05/19 07:32:01;;;;;;;4.60;1.70;;;22.80;88.50;;;;;;5024854;28;20193;-65
2022/05/19 07:34:29;;;;;;;7.03;1.57;;;23.40;85.10;;;;;;5026569;28;20185;-65
2022/05/19 07:36:55;;;;;;;2.40;1.47;;;24.50;84.10;;;;;;5029162;28;20522;-66
2022/05/19 07:39:21;;;;;;;2.43;1.37;;;25.50;81.60;;;;;;5022696;28;20938;-66
2022/05/19 07:41:47;;;;;;;3.38;1.60;;;26.30;77.50;;;;;;5025510;28;20190;-66
2022/05/19 07:44:14;;;;;;;9.75;1.83;;;26.80;76.20;;;;;;5023403;28;20182;-66
2022/05/19 07:46:40;;;;;;;3.20;1.35;;;27.20;74.50;;;;;;5024658;28;20188;-66
2022/05/19 07:49:07;;;;;;;4.70;1.60;;;27.40;71.90;;;;;;5025218;28;20210;-65
2022/05/19 07:51:40;;;;;;;4.82;1.98;;;27.70;72.60;;;;;;5022254;28;20186;-67
2022/05/19 07:54:18;;;;;;;3.20;1.95;;;28.10;71.00;;;;;;5024240;28;20285;-66
2022/05/19 07:56:44;;;;;;;4.47;2.08;;;28.50;71.40;;;;;;5020476;28;20213;-66
2022/05/19 07:59:10;;;;;;;4.03;1.73;;;28.50;70.30;;;;;;5025463;28;20181;-66
2022/05/19 08:01:39;;;;;;;4.63;1.98;;;28.60;70.40;;;;;;5022724;28;20186;-66
2022/05/19 08:04:05;;;;;;;6.63;2.35;;;29.20;68.90;;;;;;5024689;28;20376;-66
2022/05/19 08:06:33;;;;;;;3.10;1.40;;;29.20;68.00;;;;;;5023030;28;20972;-65
2022/05/19 08:08:59;;;;;;;3.00;1.73;;;28.60;69.20;;;;;;5023924;28;20429;-67
2022/05/19 08:11:28;;;;;;;3.50;1.73;;;28.90;68.80;;;;;;5022981;28;20570;-66
2022/05/19 08:16:58;;;;;;;5.80;2.00;;;29.10;69.30;;;;;;5060588;28;20430;-66
2022/05/19 08:19:24;;;;;;;3.00;1.70;;;28.80;69.10;;;;;;5061416;28;20624;-66
2022/05/19 08:21:50;;;;;;;3.53;2.00;;;28.90;71.00;;;;;;5042064;28;20185;-66
2022/05/19 08:24:16;;;;;;;2.53;1.58;;;28.70;70.80;;;;;;5024100;28;20188;-66
2022/05/19 08:26:41;;;;;;;10.93;2.90;;;29.20;69.70;;;;;;5024541;28;20193;-66
2022/05/19 08:29:07;;;;;;;2.70;1.80;;;29.50;71.30;;;;;;5025082;28;20174;-64
2022/05/19 08:31:33;;;;;;;3.92;2.25;;;30.00;68.90;;;;;;5021213;28;20221;-64
2022/05/19 08:34:03;;;;;;;3.63;1.90;;;30.00;71.20;;;;;;5023101;28;20255;-65
2022/05/19 08:36:29;;;;;;;4.15;1.85;;;29.90;69.70;;;;;;5020358;28;20209;-65
2022/05/19 08:38:55;;;;;;;5.07;1.83;;;30.00;70.60;;;;;;5022225;28;20618;-65
2022/05/19 08:41:44;;;;;;;3.15;1.85;;;30.10;69.10;;;;;;5033442;28;20189;-65
2022/05/19 08:44:28;;;;;;;3.95;2.08;;;30.40;71.40;;;;;;5031689;28;20209;-66
2022/05/19 08:46:57;;;;;;;4.30;2.13;;;30.10;69.30;;;;;;5029527;28;20276;-66
2022/05/19 08:49:53;;;;;;;17.02;2.30;;;30.80;66.90;;;;;;5038923;28;20182;-66
2022/05/19 08:52:25;;;;;;;9.90;2.55;;;31.10;65.00;;;;;;5036769;28;20196;-66
2022/05/19 08:54:53;;;;;;;4.93;1.77;;;30.70;67.50;;;;;;5034640;28;20182;-66
2022/05/19 08:57:36;;;;;;;3.00;1.58;;;30.40;69.50;;;;;;5033829;28;20312;-65
2022/05/19 09:00:14;;;;;;;6.80;2.00;;;30.80;69.40;;;;;;5018943;28;20217;-65
2022/05/19 09:03:16;;;;;;;5.07;2.00;;;30.70;69.80;;;;;;5024348;28;20187;-65
2022/05/19 09:06:16;;;;;;;3.38;1.77;;;30.70;68.60;;;;;;5027712;28;20669;-64
2022/05/19 09:09:24;;;;;;;3.22;2.08;;;30.20;68.50;;;;;;5030325;28;20186;-65
2022/05/19 09:11:50;;;;;;;5.82;2.15;;;30.20;72.50;;;;;;5031763;28;20272;-64
2022/05/19 09:14:26;;;;;;;7.85;2.45;;;29.60;71.30;;;;;;5033261;28;20188;-65
2022/05/19 09:16:56;;;;;;;12.60;2.67;;;29.70;70.20;;;;;;5030273;28;20343;-65
2022/05/19 09:19:30;;;;;;;3.33;2.00;;;29.80;73.30;;;;;;5032549;28;20459;-64
2022/05/19 09:22:03;;;;;;;6.10;2.47;;;29.60;74.80;;;;;;5031562;28;20189;-64
2022/05/19 09:24:29;;;;;;;4.72;2.30;;;29.60;72.40;;;;;;5029805;28;20629;-65
2022/05/19 09:26:57;;;;;;;7.07;2.35;;;29.40;71.50;;;;;;5032625;28;20194;-65
2022/05/19 09:29:40;;;;;;;10.50;2.30;;;29.40;72.20;;;;;;5035913;28;20269;-65
2022/05/19 09:32:13;;;;;;;3.83;2.00;;;29.40;73.90;;;;;;5032891;28;20646;-65
2022/05/19 09:34:43;;;;;;;11.32;2.67;;;29.50;75.10;;;;;;5027649;28;20277;-65
2022/05/19 09:37:16;;;;;;;5.28;2.65;;;29.70;73.80;;;;;;5026968;28;20712;-64
2022/05/19 09:39:46;;;;;;;3.28;1.88;;;29.60;72.60;;;;;;5027342;28;20189;-65
2022/05/19 09:42:16;;;;;;;4.10;2.10;;;29.40;73.10;;;;;;5027145;28;20635;-65
2022/05/19 09:44:56;;;;;;;14.77;2.78;;;29.30;75.30;;;;;;5026457;28;20534;-64
2022/05/19 09:47:30;;;;;;;3.45;2.10;;;29.40;74.10;;;;;;5027092;28;20217;-64
2022/05/19 09:50:16;;;;;;;4.53;1.95;;;29.90;72.60;;;;;;5032714;28;20181;-64
2022/05/19 09:52:43;;;;;;;8.65;3.00;;;29.50;73.20;;;;;;5025274;28;20285;-64
2022/05/19 09:55:12;;;;;;;4.00;2.25;;;29.60;76.20;;;;;;5022547;28;20189;-64
2022/05/19 09:57:44;;;;;;;5.65;2.28;;;29.60;74.70;;;;;;5032126;28;20257;-64
2022/05/19 10:00:32;;;;;;;3.55;2.25;;;29.60;74.10;;;;;;5031859;28;20186;-65
2022/05/19 10:02:59;;;;;;;3.53;2.30;;;29.80;73.30;;;;;;5031244;28;20882;-65
2022/05/19 10:05:54;;;;;;;6.47;2.15;;;29.80;74.00;;;;;;5032245;28;20588;-66
2022/05/19 10:08:41;;;;;;;2.67;1.92;;;29.80;71.00;;;;;;5035456;28;20291;-65
2022/05/19 10:11:29;;;;;;;3.83;1.92;;;29.70;72.20;;;;;;5030555;28;20186;-65
2022/05/19 10:14:03;;;;;;;5.03;2.25;;;29.70;71.20;;;;;;5031821;28;20638;-65
2022/05/19 10:16:31;;;;;;;8.75;2.00;;;29.60;71.70;;;;;;5032692;28;20310;-65
2022/05/19 10:19:20;;;;;;;6.93;1.70;;;29.50;73.00;;;;;;5031710;28;20193;-66
2022/05/19 10:22:27;;;;;;;7.72;2.03;;;29.50;73.00;;;;;;5031965;28;20491;-66
2022/05/19 10:25:01;;;;;;;3.53;1.98;;;29.40;71.20;;;;;;5032332;28;20304;-66
2022/05/19 10:31:03;;;;;;;19.73;2.47;;;29.30;70.50;;;;;;5031501;28;20602;-65
2022/05/19 10:33:42;;;;;;;3.20;1.42;;;29.40;71.50;;;;;;5032949;28;20188;-65
2022/05/19 10:36:16;;;;;;;4.28;1.55;;;29.50;70.40;;;;;;5035821;28;20648;-65
2022/05/19 10:39:05;;;;;;;6.72;2.30;;;29.60;70.80;;;;;;5035318;28;20231;-65
2022/05/19 10:41:57;;;;;;;3.17;1.52;;;29.60;66.40;;;;;;5029919;28;20201;-65
2022/05/19 10:44:42;;;;;;;2.90;1.38;;;29.80;65.40;;;;;;5023821;28;20182;-65
2022/05/19 10:47:38;;;;;;;6.45;2.45;;;29.80;66.30;;;;;;5050441;28;20210;-65
2022/05/19 10:50:30;;;;;;;6.13;2.40;;;29.80;64.40;;;;;;5025326;28;20194;-65
2022/05/19 10:52:58;;;;;;;4.97;1.52;;;29.70;61.40;;;;;;5023895;28;20193;-65
2022/05/19 10:55:39;;;;;;;3.28;1.70;;;29.80;64.60;;;;;;5022091;28;20224;-65
2022/05/19 10:58:17;;;;;;;4.65;1.80;;;29.90;64.00;;;;;;5025823;28;20224;-65
2022/05/19 11:01:33;;;;;;;3.00;1.67;;;29.80;62.80;;;;;;5020203;28;20189;-65
2022/05/19 11:04:11;;;;;;;6.63;2.10;;;29.90;62.30;;;;;;5017695;28;20193;-65
2022/05/19 11:07:10;;;;;;;6.80;2.03;;;29.90;60.90;;;;;;5022076;28;20192;-65
2022/05/19 11:09:58;;;;;;;4.05;1.75;;;29.90;63.40;;;;;;5034211;28;20201;-65
2022/05/19 11:12:32;;;;;;;3.38;1.52;;;29.80;61.50;;;;;;5021858;28;20202;-65
2022/05/19 11:15:09;;;;;;;6.72;2.10;;;30.00;62.00;;;;;;5026945;28;20193;-65
2022/05/19 11:17:48;;;;;;;15.48;2.60;;;30.10;61.20;;;;;;5016313;28;20210;-65
2022/05/19 11:20:19;;;;;;;3.17;1.50;;;30.20;62.00;;;;;;5020367;28;20187;-65
2022/05/19 11:22:48;;;;;;;2.90;1.90;;;30.30;59.90;;;;;;5020327;28;20190;-65
2022/05/19 11:28:25;;;;;;;4.95;1.88;;;29.90;59.60;;;;;;5023372;28;20244;-66
2022/05/19 11:31:06;;;;;;;6.57;1.52;;;29.60;61.80;;;;;;5025073;28;20197;-65
2022/05/19 11:33:37;;;;;;;9.50;1.90;;;29.70;60.80;;;;;;5020589;28;20662;-66
2022/05/19 11:36:25;;;;;;;2.85;1.60;;;29.90;62.90;;;;;;5025414;28;20616;-66
2022/05/19 11:39:17;;;;;;;6.75;2.28;;;30.10;59.80;;;;;;5024205;28;20232;-66
2022/05/19 11:41:45;;;;;;;4.82;1.52;;;30.20;62.30;;;;;;5021033;28;20181;-65
2022/05/19 11:44:26;;;;;;;3.25;1.95;;;30.30;63.60;;;;;;5025429;28;20209;-67
2022/05/19 11:47:08;;;;;;;4.35;1.95;;;30.30;62.10;;;;;;5025541;28;20195;-66
2022/05/19 11:55:51;;;;;;;8.43;2.25;;;30.40;59.80;;;;;;5020644;28;20607;-66
2022/05/19 11:58:26;;;;;;;3.22;1.60;;;30.50;58.60;;;;;;5022206;28;20705;-67
2022/05/19 12:01:04;;;;;;;5.75;2.42;;;30.70;61.00;;;;;;5018737;28;20181;-67
2022/05/19 12:03:44;;;;;;;9.30;1.95;;;30.70;58.70;;;;;;5021025;28;20283;-66
2022/05/19 12:06:10;;;;;;;4.18;1.67;;;30.80;59.00;;;;;;5025177;28;20235;-66
2022/05/19 12:09:14;;;;;;;4.95;2.30;;;30.90;56.30;;;;;;5022859;28;20197;-66
2022/05/19 12:11:46;;;;;;;19.17;1.88;;;30.70;59.10;;;;;;5019759;28;20200;-66
2022/05/19 12:14:18;;;;;;;16.73;2.30;;;30.70;57.80;;;;;;5024735;28;20208;-66
2022/05/19 12:16:55;;;;;;;2.75;1.23;;;30.80;61.40;;;;;;5029890;28;20255;-66
2022/05/19 12:19:47;;;;;;;3.40;1.80;;;31.10;57.40;;;;;;5031936;28;20186;-66
2022/05/19 12:22:55;;;;;;;5.88;1.70;;;31.10;58.90;;;;;;5026810;28;20652;-66
2022/05/19 12:25:30;;;;;;;3.25;1.42;;;30.90;57.10;;;;;;5027427;28;20208;-66
2022/05/19 12:28:23;;;;;;;7.93;1.23;;;31.00;58.00;;;;;;5028709;28;20181;-67
2022/05/19 12:33:37;;;;;;;5.13;1.60;;;31.30;57.30;;;;;;5022269;28;20736;-66
2022/05/19 12:36:12;;;;;;;3.88;1.65;;;31.70;56.60;;;;;;5023418;28;20200;-65
2022/05/19 12:38:44;;;;;;;3.00;1.80;;;31.60;54.80;;;;;;5028610;28;20217;-66
2022/05/19 12:41:31;;;;;;;3.00;1.52;;;31.60;55.70;;;;;;5028361;28;20181;-67
2022/05/19 12:44:17;;;;;;;7.20;2.10;;;31.20;54.50;;;;;;5028477;28;20242;-67
2022/05/19 12:46:45;;;;;;;4.53;1.80;;;31.00;55.00;;;;;;5022418;28;20189;-66
2022/05/19 12:49:26;;;;;;;3.50;1.70;;;30.80;57.20;;;;;;5027664;28;20551;-66
2022/05/19 12:52:01;;;;;;;5.03;1.58;;;31.00;54.70;;;;;;5028143;28;20182;-66
2022/05/19 12:54:33;;;;;;;7.88;2.55;;;30.90;56.00;;;;;;5027640;28;20181;-66
2022/05/19 12:57:01;;;;;;;6.30;2.58;;;30.70;54.40;;;;;;5028017;28;20198;-66
2022/05/19 12:59:44;;;;;;;4.90;1.95;;;30.70;53.90;;;;;;5028400;28;20277;-66
2022/05/19 13:02:44;;;;;;;4.40;1.90;;;30.80;55.00;;;;;;5026099;28;20210;-66
2022/05/19 13:05:18;;;;;;;2.85;2.05;;;30.70;55.50;;;;;;5029224;28;20212;-66
2022/05/19 13:07:49;;;;;;;9.05;1.40;;;30.90;54.20;;;;;;5027713;28;20197;-66
2022/05/19 13:10:24;;;;;;;2.17;1.27;;;31.20;54.40;;;;;;5027832;28;20296;-66
2022/05/19 13:12:59;;;;;;;3.08;1.83;;;31.20;54.90;;;;;;5028016;28;20185;-66
2022/05/19 13:15:29;;;;;;;5.50;1.98;;;30.90;54.00;;;;;;5027655;28;20185;-66
2022/05/19 13:17:58;;;;;;;3.22;1.63;;;30.90;54.80;;;;;;5026968;28;20745;-66
2022/05/19 13:20:32;;;;;;;3.55;1.80;;;31.20;55.90;;;;;;5022780;28;20196;-66
2022/05/19 13:23:04;;;;;;;4.65;1.95;;;31.10;54.90;;;;;;5026289;28;20276;-66
2022/05/19 13:25:33;;;;;;;6.82;2.90;;;30.90;54.00;;;;;;5019752;28;20627;-66
2022/05/19 13:30:57;;;;;;;10.82;2.15;;;31.10;55.40;;;;;;5027629;28;20197;-66
2022/05/19 13:33:26;;;;;;;6.55;2.30;;;31.20;57.10;;;;;;5026233;28;20194;-66
2022/05/19 13:36:05;;;;;;;5.55;1.38;;;31.30;55.70;;;;;;5026860;28;20236;-66